createdAt,value
2022-08-17T00:01:27.219Z,17.70
2022-08-17T00:03:54.671Z,17.80
2022-08-17T00:06:29.093Z,17.90
2022-08-17T00:08:57.884Z,17.90
2022-08-17T00:11:36.493Z,18.00
2022-08-17T00:14:07.539Z,18.10
2022-08-17T00:16:57.030Z,18.20
2022-08-17T00:19:24.959Z,18.20
2022-08-17T00:22:00.015Z,18.30
2022-08-17T00:24:39.917Z,18.30
2022-08-17T00:27:06.846Z,18.40
2022-08-17T00:29:33.741Z,18.40
2022-08-17T00:33:14.905Z,18.50
2022-08-17T00:34:49.053Z,18.50
2022-08-17T00:37:15.984Z,18.50
2022-08-17T00:39:42.958Z,18.50
2022-08-17T00:42:14.496Z,18.60
2022-08-17T00:44:41.368Z,18.60
2022-08-17T00:47:08.352Z,18.60
2022-08-17T00:49:35.295Z,18.60
2022-08-17T00:52:11.886Z,18.60
2022-08-17T00:54:41.876Z,18.60
2022-08-17T00:57:20.334Z,18.60
2022-08-17T00:59:56.007Z,18.60
2022-08-17T01:02:30.228Z,18.60
2022-08-17T01:05:01.462Z,18.60
2022-08-17T01:07:28.411Z,18.70
2022-08-17T01:09:55.318Z,18.70
2022-08-17T01:12:22.458Z,18.70
2022-08-17T01:14:49.408Z,18.70
2022-08-17T01:17:16.321Z,18.70
2022-08-17T01:19:43.377Z,18.70
2022-08-17T01:22:14.232Z,18.60
2022-08-17T01:24:43.367Z,18.70
2022-08-17T01:27:10.804Z,18.60
2022-08-17T01:29:38.620Z,18.60
2022-08-17T01:32:06.089Z,18.50
2022-08-17T01:34:37.367Z,18.40
2022-08-17T01:37:11.102Z,18.30
2022-08-17T01:39:40.107Z,18.20
2022-08-17T01:42:26.800Z,18.10
2022-08-17T01:44:56.992Z,18.00
2022-08-17T01:47:24.054Z,18.00
2022-08-17T01:49:50.959Z,17.90
2022-08-17T01:52:17.881Z,17.80
2022-08-17T01:54:46.423Z,17.80
2022-08-17T01:57:13.580Z,17.70
2022-08-17T01:59:40.471Z,17.70
2022-08-17T02:02:07.513Z,17.60
2022-08-17T02:04:34.546Z,17.60
2022-08-17T02:07:01.547Z,17.50
2022-08-17T02:09:29.970Z,17.50
2022-08-17T02:11:58.924Z,17.50
2022-08-17T02:14:25.987Z,17.40
2022-08-17T02:16:53.098Z,17.30
2022-08-17T02:19:20.383Z,17.30
2022-08-17T02:21:50.406Z,17.20
2022-08-17T02:24:59.705Z,17.30
2022-08-17T02:27:23.696Z,17.30
2022-08-17T02:29:50.548Z,17.20
2022-08-17T02:32:28.381Z,17.30
2022-08-17T02:34:58.743Z,17.30
2022-08-17T02:37:26.857Z,17.30
2022-08-17T02:39:54.135Z,17.40
2022-08-17T02:42:26.287Z,17.40
2022-08-17T02:44:53.242Z,17.50
2022-08-17T02:47:20.107Z,17.50
2022-08-17T02:49:54.087Z,17.50
2022-08-17T02:52:42.945Z,17.50
2022-08-17T02:55:15.296Z,17.50
2022-08-17T02:57:42.502Z,17.50
2022-08-17T03:00:12.435Z,17.40
2022-08-17T03:02:40.469Z,17.40
2022-08-17T03:05:08.711Z,17.40
2022-08-17T03:07:35.857Z,17.40
2022-08-17T03:10:03.485Z,17.30
2022-08-17T03:12:36.158Z,17.20
2022-08-17T03:15:04.993Z,17.30
2022-08-17T03:17:31.845Z,17.20
2022-08-17T03:19:59.017Z,17.10
2022-08-17T03:22:37.392Z,17.10
2022-08-17T03:25:10.678Z,17.10
2022-08-17T03:27:38.192Z,17.10
2022-08-17T03:30:10.622Z,17.00
2022-08-17T03:32:43.151Z,17.00
2022-08-17T03:35:11.037Z,17.00
2022-08-17T03:37:39.781Z,17.10
2022-08-17T03:40:08.117Z,17.10
2022-08-17T03:42:38.170Z,17.10
2022-08-17T03:45:06.868Z,17.20
2022-08-17T03:47:52.073Z,17.20
2022-08-17T03:50:19.095Z,17.30
2022-08-17T03:53:04.437Z,17.30
2022-08-17T03:55:49.830Z,17.40
2022-08-17T03:58:16.713Z,17.40
2022-08-17T04:00:46.249Z,17.50
2022-08-17T04:03:13.929Z,17.50
2022-08-17T04:05:40.773Z,17.50
2022-08-17T04:08:07.916Z,17.50
2022-08-17T04:10:41.316Z,17.60
2022-08-17T04:13:12.289Z,17.50
2022-08-17T04:15:39.236Z,17.50
2022-08-17T04:18:07.505Z,17.40
2022-08-17T04:20:34.594Z,17.40
2022-08-17T04:23:02.951Z,17.30
2022-08-17T04:25:32.577Z,17.30
2022-08-17T04:27:59.854Z,17.20
2022-08-17T04:30:27.518Z,17.20
2022-08-17T04:33:06.030Z,17.10
2022-08-17T04:35:41.187Z,17.10
2022-08-17T04:38:10.345Z,17.00
2022-08-17T04:40:55.741Z,17.00
2022-08-17T04:43:24.224Z,16.90
2022-08-17T04:45:57.024Z,16.90
2022-08-17T04:48:38.107Z,16.80
2022-08-17T04:51:10.642Z,16.80
2022-08-17T04:53:39.157Z,16.80
2022-08-17T04:56:06.381Z,16.70
2022-08-17T04:58:33.374Z,16.70
2022-08-17T05:01:00.599Z,16.70
2022-08-17T05:03:27.915Z,16.60
2022-08-17T05:05:54.858Z,16.70
2022-08-17T05:08:21.862Z,16.60
2022-08-17T05:10:49.018Z,16.70
2022-08-17T05:13:23.876Z,16.70
2022-08-17T05:15:53.893Z,16.80
2022-08-17T05:18:21.178Z,16.90
2022-08-17T05:20:51.471Z,17.00
2022-08-17T05:23:20.211Z,17.10
2022-08-17T05:25:48.970Z,17.10
2022-08-17T05:28:18.576Z,17.20
2022-08-17T05:30:49.247Z,17.10
2022-08-17T05:33:21.102Z,17.10
2022-08-17T05:35:49.158Z,17.20
2022-08-17T05:38:17.496Z,17.10
2022-08-17T05:40:44.846Z,17.10
2022-08-17T05:43:21.000Z,17.10
2022-08-17T05:46:00.093Z,17.20
2022-08-17T05:48:35.515Z,17.20
2022-08-17T05:51:34.890Z,17.20
2022-08-17T05:54:16.997Z,17.20
2022-08-17T05:56:43.962Z,17.20
2022-08-17T05:59:28.742Z,17.30
2022-08-17T06:02:02.846Z,17.30
2022-08-17T06:04:34.353Z,17.40
2022-08-17T06:07:06.979Z,17.40
2022-08-17T06:09:59.419Z,17.50
2022-08-17T06:12:37.265Z,17.50
2022-08-17T06:15:55.311Z,17.50
2022-08-17T06:18:23.481Z,17.60
2022-08-17T06:21:04.359Z,17.60
2022-08-17T06:23:48.809Z,17.70
2022-08-17T06:26:22.412Z,17.70
2022-08-17T06:28:58.659Z,17.80
2022-08-17T06:31:29.339Z,17.90
2022-08-17T06:33:57.061Z,18.00
2022-08-17T06:36:42.395Z,18.10
2022-08-17T06:39:27.854Z,18.30
2022-08-17T06:43:05.026Z,18.50
2022-08-17T06:45:07.329Z,18.80
2022-08-17T06:47:52.401Z,19.00
2022-08-17T06:50:27.330Z,19.30
2022-08-17T06:53:00.346Z,19.50
2022-08-17T06:55:37.926Z,19.70
2022-08-17T06:58:09.993Z,19.80
2022-08-17T07:00:44.054Z,20.00
2022-08-17T07:03:21.123Z,20.10
2022-08-17T07:05:53.781Z,20.30
2022-08-17T07:08:40.915Z,20.40
2022-08-17T07:11:13.062Z,20.60
2022-08-17T07:14:11.845Z,20.80
2022-08-17T07:16:46.731Z,20.90
2022-08-17T07:19:18.713Z,21.00
2022-08-17T07:21:46.024Z,21.10
2022-08-17T07:24:26.345Z,21.30
2022-08-17T07:27:21.334Z,21.40
2022-08-17T07:30:00.824Z,21.40
2022-08-17T07:32:34.208Z,21.40
2022-08-17T07:35:11.139Z,21.40
2022-08-17T07:37:40.366Z,21.30
2022-08-17T07:40:19.905Z,21.30
2022-08-17T07:43:05.940Z,21.30
2022-08-17T07:45:51.580Z,21.30
2022-08-17T07:48:23.802Z,21.40
2022-08-17T07:50:53.134Z,21.50
2022-08-17T07:53:23.547Z,21.60
2022-08-17T07:55:51.215Z,21.90
2022-08-17T07:58:23.505Z,22.10
2022-08-17T08:01:10.882Z,22.30
2022-08-17T08:03:43.285Z,22.40
2022-08-17T08:06:24.551Z,22.40
2022-08-17T08:08:54.792Z,22.50
2022-08-17T08:11:35.489Z,22.50
2022-08-17T08:14:21.711Z,22.50
2022-08-17T08:16:59.192Z,22.50
2022-08-17T08:19:26.823Z,22.50
2022-08-17T08:22:02.708Z,22.50
2022-08-17T08:24:36.436Z,22.50
2022-08-17T08:27:04.240Z,22.60
2022-08-17T08:29:52.719Z,22.60
2022-08-17T08:32:54.161Z,22.60
2022-08-17T08:35:29.560Z,22.70
2022-08-17T08:38:23.453Z,22.80
2022-08-17T08:40:56.161Z,23.10
2022-08-17T08:43:42.274Z,23.40
2022-08-17T08:46:31.357Z,23.60
2022-08-17T08:49:19.267Z,23.70
2022-08-17T08:51:53.288Z,23.80
2022-08-17T08:54:35.256Z,23.90
2022-08-17T08:57:27.992Z,23.90
2022-08-17T09:00:14.677Z,24.00
2022-08-17T09:03:10.710Z,24.10
2022-08-17T09:06:32.044Z,24.20
2022-08-17T09:09:18.455Z,24.40
2022-08-17T09:12:01.532Z,24.50
2022-08-17T09:14:36.550Z,24.60
2022-08-17T09:17:22.868Z,24.60
2022-08-17T09:20:00.163Z,24.50
2022-08-17T09:22:38.571Z,24.50
2022-08-17T09:25:17.931Z,24.50
2022-08-17T09:28:00.711Z,24.50
2022-08-17T09:30:29.926Z,24.70
2022-08-17T09:32:59.230Z,24.80
2022-08-17T09:35:36.925Z,24.90
2022-08-17T09:38:19.544Z,25.00
2022-08-17T09:41:10.593Z,25.10
2022-08-17T09:43:52.667Z,25.20
2022-08-17T09:46:25.912Z,25.40
2022-08-17T09:49:11.358Z,25.60
2022-08-17T09:51:52.989Z,25.60
2022-08-17T09:54:42.770Z,25.60
2022-08-17T09:57:31.599Z,25.70
2022-08-17T10:00:16.793Z,25.80
2022-08-17T10:03:18.924Z,25.90
2022-08-17T10:05:56.829Z,25.90
2022-08-17T10:08:38.184Z,25.90
2022-08-17T10:11:27.972Z,25.90
2022-08-17T10:14:35.988Z,26.00
2022-08-17T10:17:09.243Z,26.10
2022-08-17T10:19:45.988Z,26.20
2022-08-17T10:22:55.642Z,26.10
2022-08-17T10:25:56.763Z,25.90
2022-08-17T10:28:30.493Z,25.70
2022-08-17T10:31:23.243Z,25.60
2022-08-17T10:34:11.548Z,25.60
2022-08-17T10:36:48.429Z,26.00
2022-08-17T10:39:33.401Z,26.50
2022-08-17T10:42:13.825Z,26.90
2022-08-17T10:45:05.501Z,27.20
2022-08-17T10:48:07.887Z,27.30
2022-08-17T10:50:59.931Z,27.20
2022-08-17T10:53:32.686Z,27.20
2022-08-17T10:56:15.474Z,27.20
2022-08-17T10:58:55.273Z,27.30
2022-08-17T11:01:58.300Z,27.60
2022-08-17T11:04:41.044Z,28.40
2022-08-17T11:07:20.765Z,29.10
2022-08-17T11:10:03.049Z,29.50
2022-08-17T11:12:30.036Z,29.30
2022-08-17T11:15:03.250Z,29.10
2022-08-17T11:17:53.524Z,28.80
2022-08-17T11:20:52.646Z,28.40
2022-08-17T11:23:23.887Z,28.10
2022-08-17T11:25:53.440Z,28.20
2022-08-17T11:28:23.067Z,28.90
2022-08-17T11:30:55.235Z,30.30
2022-08-17T11:33:36.940Z,31.80
2022-08-17T11:36:26.991Z,33.40
2022-08-17T11:39:15.884Z,34.20
2022-08-17T11:42:01.201Z,34.10
2022-08-17T11:44:56.154Z,33.40
2022-08-17T11:48:28.329Z,32.70
2022-08-17T11:51:25.730Z,31.80
2022-08-17T11:54:21.508Z,31.00
2022-08-17T11:56:46.441Z,30.40
2022-08-17T11:59:37.101Z,29.90
2022-08-17T12:02:31.591Z,29.50
2022-08-17T12:05:14.367Z,29.10
2022-08-17T12:07:43.264Z,28.80
2022-08-17T12:10:12.171Z,28.50
2022-08-17T12:12:40.435Z,28.20
2022-08-17T12:15:11.002Z,27.90
2022-08-17T12:17:40.691Z,27.70
2022-08-17T12:20:33.362Z,27.50
2022-08-17T12:23:17.890Z,27.40
2022-08-17T12:25:56.725Z,27.30
2022-08-17T12:28:25.196Z,27.20
2022-08-17T12:30:52.329Z,27.20
2022-08-17T12:33:25.665Z,27.10
2022-08-17T12:36:00.271Z,27.00
2022-08-17T12:38:33.046Z,27.00
2022-08-17T12:41:20.523Z,27.00
2022-08-17T12:44:02.991Z,26.90
2022-08-17T12:46:33.559Z,26.90
2022-08-17T12:49:26.530Z,26.90
2022-08-17T12:52:04.543Z,26.80
2022-08-17T12:54:37.811Z,26.80
2022-08-17T12:57:13.403Z,26.70
2022-08-17T12:59:45.602Z,26.60
2022-08-17T13:02:20.794Z,26.40
2022-08-17T13:04:47.723Z,26.30
2022-08-17T13:07:28.024Z,26.20
2022-08-17T13:09:54.954Z,26.10
2022-08-17T13:12:33.162Z,26.10
2022-08-17T13:15:00.328Z,26.10
2022-08-17T13:17:29.349Z,26.00
2022-08-17T13:19:56.222Z,26.10
2022-08-17T13:22:24.217Z,26.00
2022-08-17T13:24:56.338Z,26.10
2022-08-17T13:27:25.121Z,26.10
2022-08-17T13:29:56.359Z,26.00
2022-08-17T13:32:39.893Z,26.10
2022-08-17T13:35:41.379Z,26.10
2022-08-17T13:38:37.543Z,26.10
2022-08-17T13:41:07.359Z,26.10
2022-08-17T13:43:52.543Z,26.10
2022-08-17T13:46:26.556Z,26.00
2022-08-17T13:49:09.546Z,26.00
2022-08-17T13:51:43.138Z,26.10
2022-08-17T13:54:39.689Z,26.00
2022-08-17T13:57:12.769Z,26.00
2022-08-17T13:59:53.572Z,25.90
2022-08-17T14:02:22.600Z,25.80
2022-08-17T14:04:54.169Z,25.80
2022-08-17T14:07:31.705Z,25.80
2022-08-17T14:10:06.597Z,25.70
2022-08-17T14:12:34.202Z,25.60
2022-08-17T14:15:01.204Z,25.50
2022-08-17T14:17:34.965Z,25.50
2022-08-17T14:20:07.065Z,25.50
2022-08-17T14:22:35.629Z,25.40
2022-08-17T14:25:02.700Z,25.40
2022-08-17T14:27:32.011Z,25.40
2022-08-17T14:29:59.167Z,25.40
2022-08-17T14:32:33.988Z,25.30
2022-08-17T14:35:01.305Z,25.20
2022-08-17T14:37:28.603Z,25.10
2022-08-17T14:39:56.613Z,25.10
2022-08-17T14:42:25.887Z,25.10
2022-08-17T14:44:55.793Z,25.10
2022-08-17T14:47:22.690Z,25.10
2022-08-17T14:49:49.671Z,25.10
2022-08-17T14:52:21.848Z,25.00
2022-08-17T14:54:51.303Z,24.90
2022-08-17T14:57:25.899Z,24.80
2022-08-17T15:00:00.944Z,24.80
2022-08-17T15:02:30.092Z,24.60
2022-08-17T15:05:05.323Z,24.50
2022-08-17T15:07:32.499Z,24.40
2022-08-17T15:10:01.465Z,24.30
2022-08-17T15:12:32.756Z,24.20
2022-08-17T15:15:01.149Z,24.10
2022-08-17T15:17:44.862Z,24.00
2022-08-17T15:20:15.269Z,23.90
2022-08-17T15:22:42.591Z,23.90
2022-08-17T15:25:10.539Z,23.90
2022-08-17T15:27:37.563Z,24.00
2022-08-17T15:30:08.091Z,23.90
2022-08-17T15:32:36.547Z,23.90
2022-08-17T15:35:04.294Z,23.80
2022-08-17T15:37:32.157Z,23.80
2022-08-17T15:40:01.297Z,23.80
2022-08-17T15:42:29.340Z,23.80
2022-08-17T15:44:56.424Z,23.70
2022-08-17T15:47:23.401Z,23.70
2022-08-17T15:49:50.903Z,23.70
2022-08-17T15:52:19.081Z,23.70
2022-08-17T15:54:53.433Z,23.80
2022-08-17T15:57:20.490Z,23.80
2022-08-17T15:59:47.738Z,23.80
2022-08-17T16:03:47.144Z,23.80
2022-08-17T16:05:14.254Z,23.80
2022-08-17T16:07:44.603Z,23.80
2022-08-17T16:10:16.649Z,23.80
2022-08-17T16:12:46.660Z,23.80
2022-08-17T16:15:13.845Z,23.70
2022-08-17T16:17:43.947Z,23.70
2022-08-17T16:20:20.472Z,23.60
2022-08-17T16:22:49.032Z,23.60
2022-08-17T16:25:21.142Z,23.60
2022-08-17T16:27:53.408Z,23.50
2022-08-17T16:30:22.614Z,23.50
2022-08-17T16:32:51.369Z,23.40
2022-08-17T16:35:20.412Z,23.40
2022-08-17T16:37:47.614Z,23.40
2022-08-17T16:40:17.698Z,23.40
2022-08-17T16:42:45.381Z,23.30
2022-08-17T16:45:16.711Z,23.30
2022-08-17T16:47:43.991Z,23.20
2022-08-17T16:50:15.300Z,23.20
2022-08-17T16:52:42.277Z,23.20
2022-08-17T16:55:09.851Z,23.20
2022-08-17T16:57:50.040Z,23.20
2022-08-17T17:00:17.974Z,23.20
2022-08-17T17:02:47.214Z,23.20
2022-08-17T17:05:20.035Z,23.20
2022-08-17T17:07:58.884Z,23.20
2022-08-17T17:10:39.788Z,23.20
2022-08-17T17:13:25.686Z,23.20
2022-08-17T17:16:24.050Z,23.20
2022-08-17T17:19:08.262Z,23.30
2022-08-17T17:22:03.805Z,23.30
2022-08-17T17:24:49.955Z,23.30
2022-08-17T17:27:42.577Z,23.30
2022-08-17T17:30:27.713Z,23.20
2022-08-17T17:33:00.927Z,23.20
2022-08-17T17:35:53.434Z,23.10
2022-08-17T17:38:34.686Z,23.10
2022-08-17T17:41:04.499Z,23.00
2022-08-17T17:43:40.147Z,22.90
2022-08-17T17:46:27.039Z,22.80
2022-08-17T17:48:55.313Z,22.70
2022-08-17T17:52:03.568Z,22.60
2022-08-17T17:54:52.321Z,22.60
2022-08-17T17:57:44.989Z,22.40
2022-08-17T18:00:23.574Z,22.40
2022-08-17T18:03:08.681Z,22.40
2022-08-17T18:05:57.366Z,22.40
2022-08-17T18:08:52.823Z,22.30
2022-08-17T18:11:39.523Z,22.30
2022-08-17T18:14:42.231Z,22.20
2022-08-17T18:17:09.225Z,22.20
2022-08-17T18:19:39.851Z,22.10
2022-08-17T18:22:14.095Z,22.00
2022-08-17T18:24:43.367Z,22.00
2022-08-17T18:27:39.194Z,21.90
2022-08-17T18:30:15.184Z,21.80
2022-08-17T18:32:43.667Z,21.70
2022-08-17T18:35:10.560Z,21.60
2022-08-17T18:37:48.966Z,21.50
2022-08-17T18:40:21.623Z,21.50
2022-08-17T18:42:57.500Z,21.40
2022-08-17T18:45:42.705Z,21.30
2022-08-17T18:48:33.082Z,21.20
2022-08-17T18:51:26.283Z,21.10
2022-08-17T18:54:14.790Z,21.10
2022-08-17T18:56:52.507Z,21.00
2022-08-17T18:59:39.759Z,20.90
2022-08-17T19:02:26.131Z,20.80
2022-08-17T19:05:02.646Z,20.70
2022-08-17T19:07:32.128Z,20.70
2022-08-17T19:10:14.804Z,20.60
2022-08-17T19:13:00.863Z,20.50
2022-08-17T19:15:33.271Z,20.40
2022-08-17T19:18:15.450Z,20.30
2022-08-17T19:20:53.307Z,20.30
2022-08-17T19:23:37.222Z,20.20
2022-08-17T19:26:51.110Z,20.10
2022-08-17T19:28:57.836Z,20.10
2022-08-17T19:31:26.802Z,20.20
2022-08-17T19:33:54.649Z,20.30
2022-08-17T19:36:26.216Z,20.30
2022-08-17T19:39:26.331Z,20.40
2022-08-17T19:42:06.094Z,20.50
2022-08-17T19:44:59.102Z,20.50
2022-08-17T19:47:55.582Z,20.60
2022-08-17T19:50:47.373Z,20.60
2022-08-17T19:53:36.678Z,20.70
2022-08-17T19:56:20.691Z,20.70
2022-08-17T19:58:57.120Z,20.70
2022-08-17T20:01:38.877Z,20.70
2022-08-17T20:04:31.815Z,20.70
2022-08-17T20:07:25.972Z,20.70
2022-08-17T20:10:34.260Z,20.70
2022-08-17T20:13:04.295Z,20.70
2022-08-17T20:15:33.562Z,20.70
2022-08-17T20:18:01.463Z,20.70
2022-08-17T20:20:35.877Z,20.70
2022-08-17T20:23:26.070Z,20.70
2022-08-17T20:26:19.068Z,20.60
2022-08-17T20:29:14.366Z,20.60
2022-08-17T20:31:42.582Z,20.60
2022-08-17T20:34:38.003Z,20.50
2022-08-17T20:37:11.000Z,20.50
2022-08-17T20:39:43.215Z,20.40
2022-08-17T20:42:22.411Z,20.40
2022-08-17T20:44:51.541Z,20.30
2022-08-17T20:47:26.908Z,20.20
2022-08-17T20:49:57.367Z,20.10
2022-08-17T20:52:45.563Z,20.10
2022-08-17T20:55:34.295Z,20.20
2022-08-17T20:58:17.070Z,20.20
2022-08-17T21:00:44.856Z,20.30
2022-08-17T21:03:22.506Z,20.20
2022-08-17T21:06:00.696Z,20.30
2022-08-17T21:08:45.783Z,20.40
2022-08-17T21:12:02.640Z,20.40
2022-08-17T21:14:31.076Z,20.40
2022-08-17T21:17:24.164Z,20.50
2022-08-17T21:20:09.757Z,20.50
2022-08-17T21:23:02.218Z,20.50
2022-08-17T21:26:00.934Z,20.50
2022-08-17T21:29:29.502Z,20.50
2022-08-17T21:32:10.832Z,20.50
2022-08-17T21:34:43.166Z,20.50
2022-08-17T21:37:22.294Z,20.50
2022-08-17T21:39:55.229Z,20.40
2022-08-17T21:42:47.861Z,20.40
2022-08-17T21:45:29.964Z,20.40
2022-08-17T21:48:24.577Z,20.40
2022-08-17T21:51:08.927Z,20.40
2022-08-17T21:53:43.533Z,20.40
2022-08-17T21:56:11.589Z,20.50
2022-08-17T21:58:45.441Z,20.40
2022-08-17T22:01:29.902Z,20.50
2022-08-17T22:04:16.759Z,20.50
2022-08-17T22:06:52.578Z,20.50
2022-08-17T22:09:28.289Z,20.50
2022-08-17T22:11:59.985Z,20.40
2022-08-17T22:14:51.506Z,20.40
2022-08-17T22:17:45.303Z,20.30
2022-08-17T22:20:17.633Z,20.30
2022-08-17T22:23:12.268Z,20.20
2022-08-17T22:26:00.084Z,20.20
2022-08-17T22:28:51.662Z,20.20
2022-08-17T22:31:29.444Z,20.20
2022-08-17T22:34:02.156Z,20.20
2022-08-17T22:36:29.839Z,20.20
2022-08-17T22:39:00.243Z,20.20
2022-08-17T22:41:48.457Z,20.20
2022-08-17T22:44:29.862Z,20.30
2022-08-17T22:47:16.318Z,20.30
2022-08-17T22:49:53.161Z,20.30
2022-08-17T22:53:10.741Z,20.30
2022-08-17T22:55:56.189Z,20.40
2022-08-17T22:58:42.428Z,20.40
2022-08-17T23:01:25.819Z,20.40
2022-08-17T23:04:01.349Z,20.40
2022-08-17T23:06:28.704Z,20.40
2022-08-17T23:08:56.486Z,20.40
2022-08-17T23:11:36.979Z,20.40
2022-08-17T23:14:15.672Z,20.40
2022-08-17T23:16:42.704Z,20.40
2022-08-17T23:19:13.828Z,20.40
2022-08-17T23:21:40.858Z,20.40
2022-08-17T23:24:08.951Z,20.40
2022-08-17T23:26:38.099Z,20.40
2022-08-17T23:29:06.469Z,20.40
2022-08-17T23:31:34.758Z,20.40
2022-08-17T23:34:02.278Z,20.40
2022-08-17T23:36:29.455Z,20.40
2022-08-17T23:38:56.766Z,20.40
2022-08-17T23:41:23.737Z,20.40
2022-08-17T23:43:51.717Z,20.40
2022-08-17T23:46:20.014Z,20.40
2022-08-17T23:48:47.627Z,20.40
2022-08-17T23:51:15.342Z,20.40
2022-08-17T23:53:46.383Z,20.40
2022-08-17T23:56:13.794Z,20.40
2022-08-17T23:58:42.226Z,20.40
